createdAt,value
2023-03-11T00:00:10.054Z,11.46
2023-03-11T00:02:14.505Z,11.48
2023-03-11T00:04:21.487Z,11.50
2023-03-11T00:06:25.928Z,11.50
2023-03-11T00:08:30.449Z,11.50
2023-03-11T00:10:36.271Z,11.52
2023-03-11T00:12:40.734Z,11.55
2023-03-11T00:14:45.315Z,11.55
2023-03-11T00:16:49.765Z,11.56
2023-03-11T00:18:54.374Z,11.56
2023-03-11T00:21:02.613Z,11.52
2023-03-11T00:23:08.102Z,11.48
2023-03-11T00:25:12.930Z,11.44
2023-03-11T00:27:17.344Z,11.43
2023-03-11T00:29:21.724Z,11.41
2023-03-11T00:31:26.616Z,11.42
2023-03-11T00:33:31.574Z,11.42
2023-03-11T00:35:36.820Z,11.42
2023-03-11T00:37:44.220Z,11.43
2023-03-11T00:39:48.812Z,11.42
2023-03-11T00:41:53.852Z,11.44
2023-03-11T00:43:58.220Z,11.43
2023-03-11T00:46:04.913Z,11.42
2023-03-11T00:48:09.893Z,11.39
2023-03-11T00:50:17.958Z,11.37
2023-03-11T00:52:22.391Z,11.36
2023-03-11T00:54:29.374Z,11.35
2023-03-11T00:56:33.848Z,11.34
2023-03-11T00:58:38.462Z,11.34
2023-03-11T01:00:43.285Z,11.34
2023-03-11T01:02:47.955Z,11.35
2023-03-11T01:04:56.364Z,11.33
2023-03-11T01:07:00.875Z,11.34
2023-03-11T01:09:05.795Z,11.36
2023-03-11T01:11:12.794Z,11.36
2023-03-11T01:13:17.298Z,11.35
2023-03-11T01:15:24.431Z,11.37
2023-03-11T01:17:28.865Z,11.33
2023-03-11T01:19:33.266Z,11.33
2023-03-11T01:21:37.665Z,11.29
2023-03-11T01:23:42.541Z,11.29
2023-03-11T01:25:49.148Z,11.27
2023-03-11T01:27:56.277Z,11.25
2023-03-11T01:30:00.893Z,11.24
2023-03-11T01:32:05.293Z,11.24
2023-03-11T01:34:09.813Z,11.24
2023-03-11T01:36:14.175Z,11.24
2023-03-11T01:38:18.860Z,11.23
2023-03-11T01:40:25.214Z,11.23
2023-03-11T01:42:29.912Z,11.23
2023-03-11T01:44:37.055Z,11.21
2023-03-11T01:47:03.416Z,11.20
2023-03-11T01:49:14.546Z,11.19
2023-03-11T01:51:21.066Z,11.18
2023-03-11T01:53:27.266Z,11.16
2023-03-11T01:55:32.133Z,11.14
2023-03-11T01:57:37.049Z,11.12
2023-03-11T01:59:47.342Z,11.10
2023-03-11T02:01:55.364Z,11.10
2023-03-11T02:04:00.628Z,11.08
2023-03-11T02:06:06.829Z,11.06
2023-03-11T02:08:13.634Z,11.04
2023-03-11T02:10:18.506Z,11.00
2023-03-11T02:12:23.205Z,10.95
2023-03-11T02:14:28.556Z,10.89
2023-03-11T02:16:35.688Z,10.83
2023-03-11T02:18:40.598Z,10.80
2023-03-11T02:20:48.196Z,10.80
2023-03-11T02:22:57.212Z,10.78
2023-03-11T02:25:05.723Z,10.74
2023-03-11T02:27:14.787Z,10.71
2023-03-11T02:29:19.482Z,10.68
2023-03-11T02:31:24.796Z,10.65
2023-03-11T02:33:32.252Z,10.61
2023-03-11T02:35:36.754Z,10.59
2023-03-11T02:37:46.218Z,10.57
2023-03-11T02:39:51.988Z,10.52
2023-03-11T02:41:56.437Z,10.47
2023-03-11T02:44:04.538Z,10.44
2023-03-11T02:46:10.215Z,10.43
2023-03-11T02:48:14.988Z,10.41
2023-03-11T02:50:20.015Z,10.37
2023-03-11T02:52:24.837Z,10.34
2023-03-11T02:54:29.455Z,10.35
2023-03-11T02:56:35.314Z,10.36
2023-03-11T02:58:39.718Z,10.37
2023-03-11T03:00:49.690Z,10.36
2023-03-11T03:02:56.002Z,10.35
2023-03-11T03:05:00.751Z,10.35
2023-03-11T03:07:05.321Z,10.34
2023-03-11T03:09:09.708Z,10.34
2023-03-11T03:11:14.364Z,10.28
2023-03-11T03:13:18.910Z,10.25
2023-03-11T03:15:23.474Z,10.23
2023-03-11T03:17:30.578Z,10.25
2023-03-11T03:19:35.144Z,10.24
2023-03-11T03:21:39.668Z,10.24
2023-03-11T03:23:44.120Z,10.24
2023-03-11T03:25:48.957Z,10.23
2023-03-11T03:27:53.664Z,10.22
2023-03-11T03:29:58.196Z,10.20
2023-03-11T03:32:02.713Z,10.19
2023-03-11T03:34:09.827Z,10.16
2023-03-11T03:36:16.107Z,10.14
2023-03-11T03:38:24.300Z,10.13
2023-03-11T03:40:30.754Z,10.12
2023-03-11T03:42:37.569Z,10.11
2023-03-11T03:44:43.161Z,10.11
2023-03-11T03:46:48.130Z,10.05
2023-03-11T03:48:52.966Z,10.05
2023-03-11T03:50:59.942Z,10.05
2023-03-11T03:53:04.347Z,10.07
2023-03-11T03:55:09.167Z,10.04
2023-03-11T03:57:14.774Z,10.05
2023-03-11T03:59:23.040Z,10.04
2023-03-11T04:01:32.233Z,10.04
2023-03-11T04:03:39.018Z,10.02
2023-03-11T04:05:46.894Z,10.01
2023-03-11T04:07:54.529Z,9.97
2023-03-11T04:09:59.864Z,9.97
2023-03-11T04:12:05.336Z,9.98
2023-03-11T04:14:11.575Z,9.98
2023-03-11T04:16:22.865Z,10.00
2023-03-11T04:18:29.538Z,10.02
2023-03-11T04:20:33.953Z,10.02
2023-03-11T04:22:38.417Z,10.03
2023-03-11T04:24:49.960Z,10.05
2023-03-11T04:26:55.103Z,10.04
2023-03-11T04:28:59.746Z,10.03
2023-03-11T04:31:07.527Z,10.05
2023-03-11T04:33:12.129Z,10.06
2023-03-11T04:35:16.723Z,10.10
2023-03-11T04:37:22.277Z,10.12
2023-03-11T04:39:27.062Z,10.14
2023-03-11T04:41:34.812Z,10.14
2023-03-11T04:43:39.236Z,10.16
2023-03-11T04:45:44.042Z,10.15
2023-03-11T04:47:50.476Z,10.14
2023-03-11T04:49:56.251Z,10.13
2023-03-11T04:52:01.182Z,10.12
2023-03-11T04:54:05.975Z,10.11
2023-03-11T04:56:11.125Z,10.08
2023-03-11T04:58:19.261Z,10.06
2023-03-11T05:00:25.409Z,10.04
2023-03-11T05:02:39.723Z,10.02
2023-03-11T05:04:45.371Z,10.00
2023-03-11T05:06:53.664Z,9.94
2023-03-11T05:09:00.856Z,9.93
2023-03-11T05:11:07.195Z,9.90
2023-03-11T05:13:11.744Z,9.86
2023-03-11T05:15:21.013Z,9.85
2023-03-11T05:17:25.594Z,9.84
2023-03-11T05:19:35.287Z,9.83
2023-03-11T05:21:49.471Z,9.83
2023-03-11T05:23:53.932Z,9.82
2023-03-11T05:25:58.463Z,9.79
2023-03-11T05:28:03.141Z,9.79
2023-03-11T05:30:11.668Z,9.77
2023-03-11T05:32:21.085Z,9.74
2023-03-11T05:34:27.011Z,9.73
2023-03-11T05:36:31.471Z,9.73
2023-03-11T05:38:35.956Z,9.74
2023-03-11T05:40:41.384Z,9.75
2023-03-11T05:42:45.896Z,9.76
2023-03-11T05:44:52.046Z,9.76
2023-03-11T05:46:57.248Z,9.77
2023-03-11T05:49:04.602Z,9.77
2023-03-11T05:51:09.909Z,9.77
2023-03-11T05:53:15.392Z,9.75
2023-03-11T05:55:20.691Z,9.75
2023-03-11T05:57:25.467Z,9.76
2023-03-11T05:59:29.954Z,9.74
2023-03-11T06:01:39.491Z,9.75
2023-03-11T06:03:44.376Z,9.74
2023-03-11T06:05:53.066Z,9.74
2023-03-11T06:07:58.075Z,9.73
2023-03-11T06:10:02.458Z,9.73
2023-03-11T06:12:08.842Z,9.74
2023-03-11T06:14:38.762Z,9.73
2023-03-11T06:16:43.924Z,9.71
2023-03-11T06:18:48.695Z,9.70
2023-03-11T06:20:56.468Z,9.69
2023-03-11T06:23:00.868Z,9.66
2023-03-11T06:25:05.502Z,9.66
2023-03-11T06:27:11.862Z,9.65
2023-03-11T06:29:18.670Z,9.65
2023-03-11T06:31:26.093Z,9.64
2023-03-11T06:33:34.137Z,9.63
2023-03-11T06:35:39.461Z,9.64
2023-03-11T06:37:46.485Z,9.64
2023-03-11T06:39:54.376Z,9.63
2023-03-11T06:42:01.172Z,9.63
2023-03-11T06:44:07.978Z,9.63
2023-03-11T06:46:15.286Z,9.64
2023-03-11T06:48:20.784Z,9.65
2023-03-11T06:50:26.077Z,9.63
2023-03-11T06:52:31.996Z,9.63
2023-03-11T06:54:39.216Z,9.64
2023-03-11T06:56:43.687Z,9.63
2023-03-11T06:58:48.501Z,9.64
2023-03-11T07:00:54.554Z,9.64
2023-03-11T07:02:59.001Z,9.65
2023-03-11T07:05:03.816Z,9.68
2023-03-11T07:07:09.001Z,9.68
2023-03-11T07:09:13.462Z,9.70
2023-03-11T07:11:24.823Z,9.72
2023-03-11T07:13:31.948Z,9.74
2023-03-11T07:15:36.596Z,9.74
2023-03-11T07:17:40.959Z,9.76
2023-03-11T07:19:46.288Z,9.77
2023-03-11T07:21:51.196Z,9.78
2023-03-11T07:23:56.202Z,9.82
2023-03-11T07:26:00.587Z,9.85
2023-03-11T07:28:07.710Z,9.86
2023-03-11T07:30:12.959Z,9.89
2023-03-11T07:32:17.981Z,9.92
2023-03-11T07:34:22.445Z,9.96
2023-03-11T07:36:27.794Z,9.97
2023-03-11T07:38:32.482Z,10.01
2023-03-11T07:40:37.060Z,10.08
2023-03-11T07:42:41.397Z,10.13
2023-03-11T07:44:48.521Z,10.21
2023-03-11T07:46:53.186Z,10.25
2023-03-11T07:48:58.382Z,10.29
2023-03-11T07:51:03.386Z,10.34
2023-03-11T07:53:07.800Z,10.39
2023-03-11T07:55:12.652Z,10.43
2023-03-11T07:57:17.541Z,10.47
2023-03-11T07:59:22.692Z,10.51
2023-03-11T08:01:36.269Z,10.55
2023-03-11T08:03:41.015Z,10.56
2023-03-11T08:05:45.507Z,10.56
2023-03-11T08:07:49.913Z,10.57
2023-03-11T08:09:55.535Z,10.58
2023-03-11T08:12:00.141Z,10.60
2023-03-11T08:14:04.658Z,10.63
2023-03-11T08:16:10.601Z,10.67
2023-03-11T08:18:17.984Z,10.72
2023-03-11T08:20:22.595Z,10.75
2023-03-11T08:22:27.028Z,10.79
2023-03-11T08:24:31.871Z,10.82
2023-03-11T08:26:36.737Z,10.86
2023-03-11T08:28:41.596Z,10.90
2023-03-11T08:30:46.113Z,10.93
2023-03-11T08:32:50.586Z,10.97
2023-03-11T08:34:57.816Z,10.98
2023-03-11T08:37:02.552Z,11.00
2023-03-11T08:39:07.262Z,11.03
2023-03-11T08:41:12.060Z,11.08
2023-03-11T08:43:16.677Z,11.12
2023-03-11T08:45:21.374Z,11.17
2023-03-11T08:47:25.873Z,11.24
2023-03-11T08:49:30.280Z,11.33
2023-03-11T08:51:38.017Z,11.45
2023-03-11T08:53:42.473Z,11.58
2023-03-11T08:55:47.276Z,11.73
2023-03-11T08:57:51.997Z,11.84
2023-03-11T08:59:58.335Z,11.99
2023-03-11T09:02:02.792Z,12.11
2023-03-11T09:04:07.752Z,12.17
2023-03-11T09:06:15.445Z,12.25
2023-03-11T09:08:22.766Z,12.34
2023-03-11T09:10:27.214Z,12.42
2023-03-11T09:12:31.858Z,12.51
2023-03-11T09:14:39.436Z,12.59
2023-03-11T09:16:44.145Z,12.67
2023-03-11T09:18:48.766Z,12.73
2023-03-11T09:20:58.293Z,12.78
2023-03-11T09:23:02.798Z,12.81
2023-03-11T09:25:11.112Z,12.83
2023-03-11T09:27:15.944Z,12.86
2023-03-11T09:29:20.653Z,12.89
2023-03-11T09:31:25.128Z,12.90
2023-03-11T09:33:30.233Z,12.90
2023-03-11T09:35:34.977Z,12.90
2023-03-11T09:37:39.473Z,12.90
2023-03-11T09:39:43.928Z,12.95
2023-03-11T09:41:58.745Z,12.99
2023-03-11T09:44:21.547Z,13.01
2023-03-11T09:46:41.209Z,13.00
2023-03-11T09:48:47.727Z,12.98
2023-03-11T09:50:55.232Z,12.96
2023-03-11T09:53:06.768Z,12.95
2023-03-11T09:55:23.803Z,12.95
2023-03-11T09:57:33.608Z,12.92
2023-03-11T09:59:40.068Z,12.90
2023-03-11T10:01:47.359Z,12.87
2023-03-11T10:03:53.081Z,12.83
2023-03-11T10:06:01.383Z,12.80
2023-03-11T10:08:11.731Z,12.75
2023-03-11T10:10:16.730Z,12.71
2023-03-11T10:12:25.980Z,12.66
2023-03-11T10:14:47.706Z,12.61
2023-03-11T10:16:58.395Z,12.56
2023-03-11T10:19:05.639Z,12.52
2023-03-11T10:21:14.493Z,12.53
2023-03-11T10:23:24.854Z,12.54
2023-03-11T10:25:31.613Z,12.54
2023-03-11T10:27:41.974Z,12.53
2023-03-11T10:29:53.264Z,12.55
2023-03-11T10:32:00.212Z,12.59
2023-03-11T10:34:05.845Z,12.62
2023-03-11T10:36:14.830Z,12.65
2023-03-11T10:38:21.668Z,12.67
2023-03-11T10:40:29.243Z,12.69
2023-03-11T10:42:33.802Z,12.69
2023-03-11T10:44:39.653Z,12.69
2023-03-11T10:46:47.717Z,12.69
2023-03-11T10:48:52.525Z,12.71
2023-03-11T10:51:00.467Z,12.72
2023-03-11T10:53:09.378Z,12.73
2023-03-11T10:55:20.076Z,12.75
2023-03-11T10:57:27.177Z,12.78
2023-03-11T10:59:34.034Z,12.83
2023-03-11T11:01:38.794Z,12.89
2023-03-11T11:03:49.372Z,12.93
2023-03-11T11:06:02.078Z,12.97
2023-03-11T11:08:07.955Z,12.99
2023-03-11T11:10:17.926Z,13.00
2023-03-11T11:12:24.014Z,13.01
2023-03-11T11:14:28.790Z,13.04
2023-03-11T11:16:35.692Z,13.08
2023-03-11T11:18:47.125Z,13.14
2023-03-11T11:21:01.101Z,13.18
2023-03-11T11:23:06.554Z,13.21
2023-03-11T11:25:25.999Z,13.23
2023-03-11T11:27:32.904Z,13.24
2023-03-11T11:29:37.648Z,13.23
2023-03-11T11:31:42.882Z,13.25
2023-03-11T11:33:52.225Z,13.26
2023-03-11T11:36:00.819Z,13.24
2023-03-11T11:38:06.127Z,13.24
2023-03-11T11:40:28.750Z,13.22
2023-03-11T11:42:34.218Z,13.22
2023-03-11T11:44:38.664Z,13.26
2023-03-11T11:46:44.602Z,13.28
2023-03-11T11:48:52.381Z,13.27
2023-03-11T11:51:01.738Z,13.27
2023-03-11T11:53:13.050Z,13.30
2023-03-11T11:55:23.384Z,13.31
2023-03-11T11:57:27.972Z,13.32
2023-03-11T11:59:33.812Z,13.35
2023-03-11T12:01:42.742Z,13.36
2023-03-11T12:03:58.838Z,13.35
2023-03-11T12:06:09.933Z,13.36
2023-03-11T12:08:19.327Z,13.35
2023-03-11T12:10:27.260Z,13.35
2023-03-11T12:12:35.890Z,13.32
2023-03-11T12:14:43.800Z,13.32
2023-03-11T12:16:53.284Z,13.30
2023-03-11T12:19:01.367Z,13.30
2023-03-11T12:21:14.658Z,13.27
2023-03-11T12:23:20.966Z,13.26
2023-03-11T12:25:30.128Z,13.25
2023-03-11T12:27:36.955Z,13.27
2023-03-11T12:29:43.461Z,13.33
2023-03-11T12:31:48.357Z,13.35
2023-03-11T12:33:53.847Z,13.37
2023-03-11T12:35:59.682Z,13.40
2023-03-11T12:38:09.049Z,13.41
2023-03-11T12:40:35.101Z,13.42
2023-03-11T12:42:42.055Z,13.39
2023-03-11T12:44:46.903Z,13.36
2023-03-11T12:47:12.461Z,13.35
2023-03-11T12:49:17.070Z,13.30
2023-03-11T12:51:39.193Z,13.27
2023-03-11T12:53:50.780Z,13.22
2023-03-11T12:56:04.203Z,13.18
2023-03-11T12:58:25.227Z,13.14
2023-03-11T13:00:36.324Z,13.09
2023-03-11T13:02:55.834Z,13.05
2023-03-11T13:05:02.605Z,13.02
2023-03-11T13:07:22.034Z,12.99
2023-03-11T13:09:31.477Z,12.96
2023-03-11T13:11:41.483Z,12.92
2023-03-11T13:13:46.002Z,12.87
2023-03-11T13:15:50.448Z,12.85
2023-03-11T13:18:05.375Z,12.83
2023-03-11T13:20:30.378Z,12.79
2023-03-11T13:23:07.212Z,12.74
2023-03-11T13:25:26.667Z,12.72
2023-03-11T13:27:41.445Z,12.68
2023-03-11T13:29:52.087Z,12.64
2023-03-11T13:32:05.242Z,12.62
2023-03-11T13:34:17.117Z,12.60
2023-03-11T13:36:36.331Z,12.57
2023-03-11T13:38:47.378Z,12.57
2023-03-11T13:40:52.645Z,12.56
2023-03-11T13:43:04.147Z,12.55
2023-03-11T13:45:10.192Z,12.53
2023-03-11T13:47:17.148Z,12.52
2023-03-11T13:49:34.036Z,12.50
2023-03-11T13:51:40.751Z,12.51
2023-03-11T13:53:47.874Z,12.49
2023-03-11T13:55:52.856Z,12.49
2023-03-11T13:58:00.778Z,12.48
2023-03-11T14:00:17.749Z,12.46
2023-03-11T14:02:23.265Z,12.46
2023-03-11T14:04:29.675Z,12.44
2023-03-11T14:06:34.312Z,12.46
2023-03-11T14:08:39.321Z,12.45
2023-03-11T14:10:43.838Z,12.45
2023-03-11T14:12:48.606Z,12.47
2023-03-11T14:14:59.012Z,12.45
2023-03-11T14:17:04.357Z,12.43
2023-03-11T14:19:16.075Z,12.42
2023-03-11T14:21:21.790Z,12.41
2023-03-11T14:23:28.906Z,12.40
2023-03-11T14:25:36.486Z,12.38
2023-03-11T14:27:40.968Z,12.37
2023-03-11T14:29:45.967Z,12.36
2023-03-11T14:31:52.958Z,12.36
2023-03-11T14:33:58.822Z,12.36
2023-03-11T14:36:04.973Z,12.36
2023-03-11T14:38:23.249Z,12.36
2023-03-11T14:40:29.517Z,12.35
2023-03-11T14:42:36.959Z,12.35
2023-03-11T14:44:42.837Z,12.35
2023-03-11T14:46:47.979Z,12.35
2023-03-11T14:48:56.631Z,12.35
2023-03-11T14:51:03.056Z,12.36
2023-03-11T14:53:10.923Z,12.35
2023-03-11T14:55:17.082Z,12.36
2023-03-11T14:57:25.365Z,12.36
2023-03-11T14:59:32.441Z,12.36
2023-03-11T15:01:40.637Z,12.37
2023-03-11T15:03:48.395Z,12.37
2023-03-11T15:05:57.241Z,12.36
2023-03-11T15:08:03.188Z,12.36
2023-03-11T15:10:10.090Z,12.36
2023-03-11T15:12:30.145Z,12.34
2023-03-11T15:14:35.443Z,12.34
2023-03-11T15:16:40.253Z,12.33
2023-03-11T15:18:46.742Z,12.33
2023-03-11T15:21:03.760Z,12.33
2023-03-11T15:23:22.125Z,12.32
2023-03-11T15:25:26.682Z,12.33
2023-03-11T15:27:32.740Z,12.31
2023-03-11T15:29:37.906Z,12.31
2023-03-11T15:31:44.936Z,12.30
2023-03-11T15:33:49.879Z,12.28
2023-03-11T15:35:54.272Z,12.27
2023-03-11T15:38:13.688Z,12.27
2023-03-11T15:40:35.197Z,12.25
2023-03-11T15:42:43.273Z,12.24
2023-03-11T15:44:52.692Z,12.22
2023-03-11T15:46:59.325Z,12.22
2023-03-11T15:49:05.684Z,12.20
2023-03-11T15:51:21.056Z,12.20
2023-03-11T15:53:27.300Z,12.18
2023-03-11T15:55:34.575Z,12.17
2023-03-11T15:57:38.981Z,12.14
2023-03-11T15:59:43.913Z,12.13
2023-03-11T16:01:49.059Z,12.10
2023-03-11T16:03:53.659Z,12.09
2023-03-11T16:05:58.134Z,12.07
2023-03-11T16:08:02.533Z,12.04
2023-03-11T16:10:07.526Z,12.04
2023-03-11T16:12:24.452Z,12.02
2023-03-11T16:14:28.938Z,12.00
2023-03-11T16:16:33.697Z,11.97
2023-03-11T16:18:38.507Z,11.94
2023-03-11T16:20:44.750Z,11.93
2023-03-11T16:22:50.461Z,11.89
2023-03-11T16:24:56.173Z,11.88
2023-03-11T16:27:00.962Z,11.85
2023-03-11T16:29:18.539Z,11.84
2023-03-11T16:31:23.468Z,11.82
2023-03-11T16:33:27.950Z,11.80
2023-03-11T16:35:32.769Z,11.79
2023-03-11T16:37:37.176Z,11.76
2023-03-11T16:39:41.711Z,11.76
2023-03-11T16:41:46.797Z,11.75
2023-03-11T16:43:51.196Z,11.73
2023-03-11T16:45:58.636Z,11.72
2023-03-11T16:48:03.044Z,11.71
2023-03-11T16:50:08.100Z,11.69
2023-03-11T16:52:12.529Z,11.67
2023-03-11T16:54:17.095Z,11.66
2023-03-11T16:56:22.786Z,11.64
2023-03-11T16:58:27.233Z,11.62
2023-03-11T17:00:31.615Z,11.61
2023-03-11T17:02:38.725Z,11.59
2023-03-11T17:04:43.150Z,11.56
2023-03-11T17:06:47.795Z,11.54
2023-03-11T17:08:52.425Z,11.52
2023-03-11T17:10:56.921Z,11.49
2023-03-11T17:13:01.317Z,11.48
2023-03-11T17:15:06.258Z,11.46
2023-03-11T17:17:10.673Z,11.44
2023-03-11T17:19:18.011Z,11.43
2023-03-11T17:21:22.590Z,11.42
2023-03-11T17:23:27.041Z,11.42
2023-03-11T17:25:31.441Z,11.41
2023-03-11T17:27:36.440Z,11.39
2023-03-11T17:29:41.165Z,11.39
2023-03-11T17:31:45.649Z,11.37
2023-03-11T17:33:50.792Z,11.34
2023-03-11T17:36:05.260Z,11.33
2023-03-11T17:38:09.822Z,11.27
2023-03-11T17:40:15.046Z,11.21
2023-03-11T17:42:19.404Z,11.13
2023-03-11T17:44:23.854Z,11.07
2023-03-11T17:46:28.277Z,10.99
2023-03-11T17:48:32.676Z,10.93
2023-03-11T17:50:39.210Z,10.87
2023-03-11T17:52:48.472Z,10.81
2023-03-11T17:54:53.578Z,10.78
2023-03-11T17:56:58.392Z,10.74
2023-03-11T17:59:02.785Z,10.70
2023-03-11T18:01:07.554Z,10.68
2023-03-11T18:03:11.918Z,10.65
2023-03-11T18:05:18.683Z,10.63
2023-03-11T18:07:23.802Z,10.62
2023-03-11T18:09:30.974Z,10.58
2023-03-11T18:11:35.486Z,10.56
2023-03-11T18:13:40.471Z,10.52
2023-03-11T18:15:44.847Z,10.46
2023-03-11T18:17:49.739Z,10.44
2023-03-11T18:19:54.127Z,10.40
2023-03-11T18:21:58.592Z,10.36
2023-03-11T18:24:03.412Z,10.35
2023-03-11T18:26:11.288Z,10.33
2023-03-11T18:28:15.686Z,10.31
2023-03-11T18:30:20.590Z,10.28
2023-03-11T18:32:24.975Z,10.26
2023-03-11T18:34:29.587Z,10.23
2023-03-11T18:36:34.949Z,10.20
2023-03-11T18:38:39.420Z,10.19
2023-03-11T18:40:44.387Z,10.16
2023-03-11T18:42:51.407Z,10.14
2023-03-11T18:44:55.738Z,10.13
2023-03-11T18:47:00.151Z,10.11
2023-03-11T18:49:05.697Z,10.10
2023-03-11T18:51:11.206Z,10.09
2023-03-11T18:53:15.600Z,10.07
2023-03-11T18:55:20.026Z,10.04
2023-03-11T18:57:26.090Z,10.02
2023-03-11T18:59:33.605Z,9.99
2023-03-11T19:01:38.104Z,9.96
2023-03-11T19:03:42.664Z,9.93
2023-03-11T19:05:50.722Z,9.90
2023-03-11T19:07:55.283Z,9.90
2023-03-11T19:09:59.846Z,9.88
2023-03-11T19:12:04.315Z,9.87
2023-03-11T19:14:08.753Z,9.86
2023-03-11T19:16:16.671Z,9.85
2023-03-11T19:18:21.111Z,9.84
2023-03-11T19:20:27.114Z,9.83
2023-03-11T19:22:31.452Z,9.82
2023-03-11T19:24:35.980Z,9.81
2023-03-11T19:26:45.172Z,9.82
2023-03-11T19:28:50.429Z,9.81
2023-03-11T19:30:55.270Z,9.81
2023-03-11T19:33:02.358Z,9.80
2023-03-11T19:35:07.023Z,9.79
2023-03-11T19:37:11.453Z,9.76
2023-03-11T19:39:15.826Z,9.75
2023-03-11T19:41:23.096Z,9.74
2023-03-11T19:43:28.628Z,9.72
2023-03-11T19:45:32.980Z,9.68
2023-03-11T19:47:37.351Z,9.65
2023-03-11T19:49:44.375Z,9.61
2023-03-11T19:51:50.571Z,9.59
2023-03-11T19:53:55.166Z,9.55
2023-03-11T19:56:00.283Z,9.53
2023-03-11T19:58:04.706Z,9.49
2023-03-11T20:00:10.560Z,9.48
2023-03-11T20:02:16.634Z,9.46
2023-03-11T20:04:21.088Z,9.43
2023-03-11T20:06:28.796Z,9.43
2023-03-11T20:08:36.724Z,9.40
2023-03-11T20:10:42.349Z,9.36
2023-03-11T20:13:01.263Z,9.29
2023-03-11T20:15:06.715Z,9.23
2023-03-11T20:17:11.485Z,9.21
2023-03-11T20:19:15.951Z,9.18
2023-03-11T20:21:20.359Z,9.17
2023-03-11T20:23:27.610Z,9.14
2023-03-11T20:25:32.462Z,9.09
2023-03-11T20:27:37.022Z,9.06
2023-03-11T20:29:41.544Z,9.01
2023-03-11T20:31:46.133Z,8.99
2023-03-11T20:33:50.966Z,8.98
2023-03-11T20:36:05.099Z,8.97
2023-03-11T20:38:10.330Z,8.95
2023-03-11T20:40:18.404Z,8.90
2023-03-11T20:42:23.070Z,8.88
2023-03-11T20:44:27.467Z,8.85
2023-03-11T20:46:31.944Z,8.84
2023-03-11T20:48:36.877Z,8.84
2023-03-11T20:50:41.284Z,8.83
2023-03-11T20:52:47.616Z,8.83
2023-03-11T20:54:52.209Z,8.85
2023-03-11T20:56:59.446Z,8.89
2023-03-11T20:59:05.366Z,8.91
2023-03-11T21:01:15.315Z,8.88
2023-03-11T21:03:19.764Z,8.83
2023-03-11T21:05:24.281Z,8.77
2023-03-11T21:07:28.879Z,8.71
2023-03-11T21:09:33.291Z,8.64
2023-03-11T21:11:37.719Z,8.59
2023-03-11T21:13:44.899Z,8.55
2023-03-11T21:15:49.343Z,8.55
2023-03-11T21:17:53.904Z,8.53
2023-03-11T21:19:58.293Z,8.53
2023-03-11T21:22:02.775Z,8.55
2023-03-11T21:24:07.793Z,8.55
2023-03-11T21:26:13.302Z,8.53
2023-03-11T21:28:17.738Z,8.51
2023-03-11T21:30:24.899Z,8.46
2023-03-11T21:32:31.519Z,8.45
2023-03-11T21:34:36.112Z,8.43
2023-03-11T21:36:40.704Z,8.41
2023-03-11T21:38:45.235Z,8.38
2023-03-11T21:40:49.693Z,8.35
2023-03-11T21:42:54.237Z,8.34
2023-03-11T21:44:58.791Z,8.33
2023-03-11T21:47:05.915Z,8.31
2023-03-11T21:49:10.424Z,8.30
2023-03-11T21:51:15.255Z,8.30
2023-03-11T21:53:19.683Z,8.32
2023-03-11T21:55:24.248Z,8.36
2023-03-11T21:57:28.758Z,8.36
2023-03-11T21:59:33.306Z,8.34
2023-03-11T22:01:37.907Z,8.31
2023-03-11T22:03:45.119Z,8.30
2023-03-11T22:05:49.774Z,8.27
2023-03-11T22:07:54.168Z,8.20
2023-03-11T22:09:58.605Z,8.15
2023-03-11T22:12:03.189Z,8.13
2023-03-11T22:14:07.577Z,8.13
2023-03-11T22:16:12.225Z,8.17
2023-03-11T22:18:16.695Z,8.18
2023-03-11T22:20:23.937Z,8.19
2023-03-11T22:22:28.777Z,8.19
2023-03-11T22:24:33.221Z,8.18
2023-03-11T22:26:37.749Z,8.18
2023-03-11T22:28:42.302Z,8.18
2023-03-11T22:30:46.638Z,8.15
2023-03-11T22:32:51.413Z,8.13
2023-03-11T22:34:55.843Z,8.13
2023-03-11T22:37:02.871Z,8.11
2023-03-11T22:39:07.594Z,8.08
2023-03-11T22:41:11.979Z,8.07
2023-03-11T22:43:16.353Z,8.06
2023-03-11T22:45:22.346Z,8.03
2023-03-11T22:47:26.922Z,8.03
2023-03-11T22:49:31.416Z,8.04
2023-03-11T22:51:35.786Z,8.04
2023-03-11T22:53:42.740Z,8.04
2023-03-11T22:55:47.385Z,8.04
2023-03-11T22:57:51.722Z,8.06
2023-03-11T22:59:56.046Z,8.07
2023-03-11T23:02:00.491Z,8.06
2023-03-11T23:04:04.860Z,8.07
2023-03-11T23:06:10.338Z,8.07
2023-03-11T23:08:15.352Z,8.07
2023-03-11T23:10:25.424Z,8.07
2023-03-11T23:12:29.872Z,8.05
2023-03-11T23:14:44.696Z,8.04
2023-03-11T23:16:49.498Z,8.03
2023-03-11T23:18:54.767Z,8.01
2023-03-11T23:20:59.168Z,7.99
2023-03-11T23:23:03.507Z,7.99
2023-03-11T23:25:08.746Z,7.98
2023-03-11T23:27:15.846Z,7.97
2023-03-11T23:29:20.181Z,7.95
2023-03-11T23:31:26.480Z,7.94
2023-03-11T23:33:30.884Z,7.94
2023-03-11T23:35:35.813Z,7.93
2023-03-11T23:37:40.285Z,7.92
2023-03-11T23:39:44.608Z,7.91
2023-03-11T23:41:48.933Z,7.91
2023-03-11T23:43:55.900Z,7.86
2023-03-11T23:46:00.260Z,7.83
2023-03-11T23:48:04.662Z,7.80
2023-03-11T23:50:09.577Z,7.77
2023-03-11T23:52:14.139Z,7.74
2023-03-11T23:54:18.467Z,7.73
2023-03-11T23:56:22.949Z,7.71
2023-03-11T23:58:27.647Z,7.69
